TGPY/GND METAR and TAF weather

Enter ICAO airport designator
Station Type Date Time Source
TGPY METAR 2019/12/07 00:00 UTC NOAA

TGPY 070000Z 07006KT 9999 FEW017 27/23 Q1013 ADJ SHRA-S


Station Type Date Time Source
TGPY Decoded METAR 2019/12/07 00:00 UTC NOAA

Point Salines Airport, Grenada (TGPY) 12-00N 061-47W 7M
Dec 06, 2019 - 07:00 PM EST / 2019.12.07 0000 UTC
Wind: from the ENE (070 degrees) at 7 MPH (6 KT):0
Visibility: greater than 7 mile(s):0
Sky conditions: mostly clear
Temperature: 80 F (27 C)
Dew Point: 73 F (23 C)
Relative Humidity: 78%
Pressure (altimeter): 29.91 in. Hg (1013 hPa)
ob: TGPY 070000Z 07006KT 9999 FEW017 27/23 Q1013 ADJ SHRA-S
cycle: 0

Station Type Date Time Source
TGPY TAF 2019/12/06 18:33 UTC NOAA

TAF TAF TGPY 061529Z 0618/0718 07012KT 9999 SCT018
BECMG 0623/0701 08008KT SCT018
BECMG 0710/0712 08012KT FEW021

Example: see airport list